Ashford, WA

4:01 AM PST on December 28, 2014 (GMT -0800)
Paradise Estates | Change Station
CLOSE
Current Station
Personal Weather Station
Location: Ashford, WA
Elevation: 1722 ft
Nearby Weather Stations
Active Advisory: Winter Storm Warning

Elev 1722 ft 46.73 °N, 122.01 °W | Updated 54 seconds ago

Overcast
Overcast
36.9 °F
Feels Like 35 °F
N
3.1
Wind Variable Wind from ESE
Gusts 3.1 mph

Today
High -- | Low -- °F
--% Chance of Precip.
Yesterday
High -- | Low -- °F
Precip. -- in
7:52 AM 4:26 PM
Waxing Crescent, 47% visible
Pressure 30.15 in
Visibility 10.0 miles
Clouds Mostly Cloudy 2000 ft
Windchill 35 °F
Dew Point 36 °F
Humidity 98%
Rainfall 0.00 in
Snow Depth Not available.
UV 0 out of 12
Pollen .50 out of 12
Air Quality Not available.
Flu Activity Not available.
METAR KTCM 281158Z AUTO 17005KT 10SM BKN020 04/04 A3013 RMK AO2 BKN V OVC SLP209 70017 T00410040 10054 20030 52012 $

More Conditions Fewer Conditions

Pressure 30.15 in
Visibility 10.0 miles
Clouds Mostly Cloudy 2000 ft
Windchill 35 °F
Dew Point 36 °F
Humidity 98%
Rainfall 0.00 in
Snow Depth Not available.
UV 0 out of 12
Pollen .50 out of 12
Air Quality Not available.
Flu Activity Not available.
METAR KTCM 281158Z AUTO 17005KT 10SM BKN020 04/04 A3013 RMK AO2 BKN V OVC SLP209 70017 T00410040 10054 20030 52012 $

More Conditions Fewer Conditions

10-Day Weather Forecast

Almanac

Astronomy

Dec. 28, 2014 Rise Set
Actual Time
Civil Twilight
Nautical Twilight
Astronomical Twilight
Moon
Length of Visible Light
Length of Day
Tomorrow will be .
, % of the Moon is Illuminated

Today's Extremes

State Highs State Lows

Community

WunderPhotos

Upload Photos

1,781,231 photos uploaded!

WunderBlogs® & News

Nearby

Air Quality

  Air Quality AQ Index Pollutant
Not available.

Snow Depth

Station Depth Elevation

Earthquake Activity

City Distance Mag. Time & Date
Minimum magnitude displayed is 2.5.

Coastal Water Temperatures

Place Temperature

Nearby Weather Stations